createdAt,value
2023-01-13T00:12:43.507Z,74.4
2023-01-13T00:32:43.506Z,74.9
2023-01-13T00:52:43.525Z,74.9
2023-01-13T01:12:43.509Z,74.9
2023-01-13T01:32:43.524Z,73.3
2023-01-13T01:52:43.446Z,72.5
2023-01-13T02:12:43.460Z,72.9
2023-01-13T02:32:43.363Z,73.3
2023-01-13T02:52:43.389Z,73.7
2023-01-13T03:12:43.386Z,73.3
2023-01-13T03:32:43.402Z,71.7
2023-01-13T03:52:43.413Z,70.4
2023-01-13T04:12:43.319Z,69.9
2023-01-13T04:32:43.331Z,68.1
2023-01-13T04:52:43.342Z,68.2
2023-01-13T05:12:43.351Z,68.8
2023-01-13T05:32:43.253Z,68.5
2023-01-13T05:52:43.279Z,69.1
2023-01-13T06:12:43.285Z,70.9
2023-01-13T06:32:43.301Z,70.5
2023-01-13T06:52:43.308Z,72.2
2023-01-13T07:12:43.211Z,72.0
2023-01-13T07:32:43.215Z,72.2
2023-01-13T07:52:43.233Z,71.4
2023-01-13T08:12:43.239Z,72.4
2023-01-13T08:32:43.143Z,73.8
2023-01-13T08:52:43.146Z,72.8
2023-01-13T09:12:43.164Z,72.6
2023-01-13T09:32:43.171Z,70.7
2023-01-13T09:52:43.196Z,69.2
2023-01-13T10:12:43.088Z,70.2
2023-01-13T10:32:43.112Z,70.5
2023-01-13T10:52:43.106Z,71.4
2023-01-13T11:12:43.121Z,72.1
2023-01-13T11:32:43.028Z,75.5
2023-01-13T11:52:43.030Z,76.0
2023-01-13T12:12:43.039Z,75.1
2023-01-13T12:32:43.048Z,82.0
2023-01-13T12:52:43.059Z,79.5
2023-01-13T13:12:43.079Z,78.6
2023-01-13T13:32:42.979Z,78.4
2023-01-13T13:52:42.985Z,73.9
2023-01-13T14:12:42.903Z,88.6
2023-01-13T14:32:42.935Z,88.2
2023-01-13T14:52:42.942Z,87.9
2023-01-13T15:12:42.904Z,88.2
2023-01-13T15:32:42.814Z,88.6
2023-01-13T15:52:42.824Z,88.4
2023-01-13T16:12:42.908Z,89.1
2023-01-13T16:32:42.939Z,88.5
2023-01-13T16:52:43.064Z,87.9
2023-01-13T17:12:42.893Z,86.1
2023-01-13T17:32:42.879Z,84.8
2023-01-13T17:52:42.915Z,85.0
2023-01-13T18:12:42.905Z,85.8
2023-01-13T18:32:42.984Z,88.1
2023-01-13T18:52:42.838Z,89.0
2023-01-13T19:12:42.845Z,82.4
2023-01-13T19:32:42.880Z,80.7
2023-01-13T19:52:42.877Z,81.5
2023-01-13T20:12:42.890Z,81.8
2023-01-13T20:32:42.829Z,82.5
2023-01-13T20:52:42.811Z,82.9
2023-01-13T21:12:42.819Z,83.0
2023-01-13T21:32:42.838Z,83.1
2023-01-13T21:52:42.845Z,83.9
2023-01-13T22:12:42.856Z,84.3
2023-01-13T22:32:42.819Z,85.3
2023-01-13T22:52:42.765Z,85.0
2023-01-13T23:12:42.773Z,85.6
2023-01-13T23:32:42.782Z,85.7
2023-01-13T23:52:42.781Z,86.0
